Time;durP1;ratioP1;P1;durP2;ratioP2;P2;SDS_P1;SDS_P2;PMS_P1;PMS_P2;Temp;Humidity;BMP_temperature;BMP_pressure;BME280_temperature;BME280_humidity;BME280_pressure;Samples;Min_cycle;Max_cycle;Signal;HPM_P1;HPM_P2
2022/02/08 00:00:05;;;;;;;8.88;2.83;;;;;;;3.28;82.73;101960.28;21067624;28;20052;-80
2022/02/08 00:10:06;;;;;;;11.25;3.42;;;;;;;3.29;83.44;101967.22;21068013;28;20076;-81
2022/02/08 00:20:09;;;;;;;14.18;4.05;;;;;;;3.32;83.42;101972.53;21078088;28;20058;-81
2022/02/08 00:30:11;;;;;;;13.27;3.95;;;;;;;3.33;81.98;101977.75;21086428;28;20047;-80
2022/02/08 00:40:13;;;;;;;13.70;3.80;;;;;;;3.19;83.31;101981.50;21078861;28;20040;-80
2022/02/08 00:50:14;;;;;;;11.40;3.70;;;;;;;3.05;84.12;101993.00;21108563;28;20044;-80
2022/02/08 01:00:16;;;;;;;13.05;3.42;;;;;;;2.89;86.48;101995.81;21107611;28;20047;-80
2022/02/08 01:10:20;;;;;;;9.05;3.50;;;;;;;2.66;86.79;101998.31;21088529;28;20100;-80
2022/02/08 01:20:29;;;;;;;9.10;3.22;;;;;;;2.52;88.55;101994.25;21093293;28;20444;-80
2022/02/08 01:30:44;;;;;;;13.63;4.00;;;;;;;2.49;88.48;101994.09;21103333;28;20501;-80
2022/02/08 01:51:02;;;;;;;10.27;3.10;;;;;;;2.48;87.17;102001.00;21112710;28;20051;-80
2022/02/08 02:01:08;;;;;;;10.40;2.90;;;;;;;2.38;88.70;101985.03;21106186;28;20054;-80
2022/02/08 02:11:10;;;;;;;11.60;3.17;;;;;;;2.35;87.84;101984.88;21107497;28;20050;-80
2022/02/08 02:21:19;;;;;;;16.45;3.25;;;;;;;2.54;86.82;101979.72;21112970;28;20077;-79
2022/02/08 02:31:22;;;;;;;12.18;4.10;;;;;;;2.68;84.43;101973.38;21080675;28;20044;-80
2022/02/08 02:41:33;;;;;;;11.70;3.65;;;;;;;2.77;85.70;101963.41;21092411;28;20115;-80
2022/02/08 02:51:41;;;;;;;17.95;4.22;;;;;;;2.82;85.52;101968.78;21083478;28;20036;-79
2022/02/08 03:22:18;;;;;;;10.38;3.45;;;;;;;2.90;86.35;101987.22;21088974;28;20041;-80
2022/02/08 03:32:23;;;;;;;11.07;3.20;;;;;;;3.03;86.51;101981.72;21091766;28;20052;-80
2022/02/08 03:42:35;;;;;;;16.10;4.32;;;;;;;3.10;87.68;101986.31;21099612;28;20368;-80
2022/02/08 03:52:46;;;;;;;12.73;4.25;;;;;;;3.25;85.83;101986.91;21134048;28;20051;-81
2022/02/08 04:02:52;;;;;;;9.90;3.60;;;;;;;3.23;84.63;101988.56;21118702;28;20671;-81
2022/02/08 04:43:51;;;;;;;10.85;3.10;;;;;;;3.59;80.02;101968.41;21082233;28;20420;-78
2022/02/08 05:35:52;;;;;;;17.27;3.92;;;;;;;3.63;77.93;101964.19;21074295;28;20408;-79
2022/02/08 05:56:13;;;;;;;7.70;3.00;;;;;;;3.67;78.41;101965.22;21091079;28;20074;-79
2022/02/08 06:06:24;;;;;;;12.30;3.30;;;;;;;3.60;79.23;101939.09;21086270;28;20135;-79
2022/02/08 06:16:26;;;;;;;11.40;3.33;;;;;;;3.71;78.03;101956.72;21063626;28;20105;-79
2022/02/08 06:26:29;;;;;;;8.43;2.47;;;;;;;3.74;76.36;101962.91;21080148;28;20052;-77
2022/02/08 06:36:31;;;;;;;12.90;3.50;;;;;;;3.73;76.49;101981.84;21049005;28;20048;-77
2022/02/08 06:46:33;;;;;;;13.98;3.40;;;;;;;3.83;75.73;101981.41;21047849;28;20056;-78
2022/02/08 06:56:35;;;;;;;11.32;3.20;;;;;;;3.91;74.72;101981.66;21046859;28;20409;-78
2022/02/08 07:06:37;;;;;;;16.52;3.53;;;;;;;3.92;75.15;101991.19;21046675;28;20056;-79
2022/02/08 07:16:38;;;;;;;14.13;2.85;;;;;;;4.03;75.28;101991.59;21065709;28;20048;-79
2022/02/08 07:26:40;;;;;;;9.73;2.20;;;;;;;4.20;74.45;102000.84;21067119;28;20036;-79
2022/02/08 07:36:52;;;;;;;12.43;2.38;;;;;;;4.14;75.08;102002.34;21071741;28;20065;-79
2022/02/08 07:46:54;;;;;;;13.35;2.70;;;;;;;4.29;74.41;102001.19;21078461;28;20050;-79
2022/02/08 07:56:55;;;;;;;7.97;2.30;;;;;;;4.47;73.84;101994.91;21080384;28;20036;-79
2022/02/08 08:06:57;;;;;;;8.18;2.33;;;;;;;4.61;71.33;101991.94;21076587;28;20044;-78
2022/02/08 08:27:23;;;;;;;6.13;2.03;;;;;;;4.96;69.67;101968.88;21048961;28;20113;-78
2022/02/08 08:37:25;;;;;;;15.43;3.87;;;;;;;5.05;69.73;101973.47;21075498;28;20043;-78
2022/02/08 08:57:47;;;;;;;12.18;3.55;;;;;;;5.38;70.73;101982.31;21077217;28;20108;-78
2022/02/08 09:07:51;;;;;;;11.35;2.30;;;;;;;5.50;69.06;101976.59;21070638;28;20044;-79
2022/02/08 09:18:19;;;;;;;8.80;2.37;;;;;;;5.63;68.25;101983.94;21076749;28;20040;-79
2022/02/08 09:28:39;;;;;;;12.80;3.17;;;;;;;5.73;68.82;101982.50;21074449;28;20044;-79
2022/02/08 09:38:41;;;;;;;12.80;2.92;;;;;;;5.73;68.44;102005.00;21065297;28;20040;-79
2022/02/08 09:49:04;;;;;;;11.90;2.72;;;;;;;6.05;67.24;102003.38;21056291;28;20408;-79
2022/02/08 09:59:04;;;;;;;10.65;2.60;;;;;;;6.24;67.73;101996.97;21074485;28;20404;-80
2022/02/08 10:09:09;;;;;;;15.43;3.33;;;;;;;6.46;66.51;101995.81;21053510;28;21053;-80
2022/02/08 10:30:08;;;;;;;11.02;2.25;;;;;;;6.49;66.79;102008.94;21069265;28;20055;-77
2022/02/08 10:40:10;;;;;;;15.23;2.88;;;;;;;6.59;67.34;102018.75;21068546;28;20036;-78
2022/02/08 10:50:12;;;;;;;16.48;2.80;;;;;;;6.59;68.68;102008.31;21068053;28;20044;-78
2022/02/08 11:00:14;;;;;;;17.92;3.40;;;;;;;6.48;72.93;102014.97;21066869;28;20554;-77
2022/02/08 11:10:32;;;;;;;16.08;3.47;;;;;;;6.48;79.71;102007.19;21069417;28;20417;-78
2022/02/08 11:20:42;;;;;;;13.70;2.95;;;;;;;6.09;86.10;102010.44;21065684;28;20052;-78
2022/02/08 11:31:00;;;;;;;14.73;2.92;;;;;;;6.08;87.97;102017.34;21066852;28;20067;-78
2022/02/08 12:12:14;;;;;;;11.85;3.38;;;;;;;6.76;87.34;101995.78;21080582;28;20093;-77
2022/02/08 12:33:30;;;;;;;19.50;3.13;;;;;;;7.07;87.17;101976.56;21082304;28;20040;-77
2022/02/08 12:54:28;;;;;;;15.05;3.90;;;;;;;7.42;86.11;101957.38;21078559;28;20097;-78
2022/02/08 13:15:56;;;;;;;10.50;3.45;;;;;;;7.54;87.41;101935.06;21075452;28;20043;-78
2022/02/08 15:08:38;;;;;;;7.10;2.15;;;;;;;8.32;91.97;101853.97;21072799;28;20654;-80
2022/02/08 15:18:40;;;;;;;6.50;1.80;;;;;;;8.34;93.13;101862.72;21053482;28;20041;-80
2022/02/08 15:28:42;;;;;;;8.90;2.50;;;;;;;8.39;91.98;101845.44;21071357;28;20390;-79
2022/02/08 15:38:50;;;;;;;8.63;1.90;;;;;;;8.40;92.15;101852.41;21094091;28;20044;-80
2022/02/08 15:48:54;;;;;;;8.93;1.88;;;;;;;8.35;92.60;101859.25;21102165;28;20055;-80
2022/02/08 16:09:27;;;;;;;8.40;2.03;;;;;;;8.21;93.04;101881.63;21137930;28;20040;-79
2022/02/08 16:19:45;;;;;;;12.10;3.05;;;;;;;8.16;93.46;101886.75;21083983;28;20048;-80
2022/02/08 17:00:35;;;;;;;10.45;2.67;;;;;;;8.02;95.17;101898.66;21088207;28;20048;-80
2022/02/08 17:10:51;;;;;;;10.95;2.63;;;;;;;8.01;96.96;101899.53;21090467;28;20481;-80
2022/02/08 17:51:52;;;;;;;9.80;3.70;;;;;;;7.72;100.00;101917.22;21093389;28;20539;-81
2022/02/08 18:01:55;;;;;;;9.32;3.13;;;;;;;7.63;100.00;101922.22;21106649;28;20157;-80
2022/02/08 18:11:59;;;;;;;10.07;3.85;;;;;;;7.52;100.00;101926.31;21079627;28;20044;-79
2022/02/08 19:23:43;;;;;;;7.40;3.85;;;;;;;7.20;100.00;101936.94;20986221;28;20098;-69
2022/02/08 19:33:44;;;;;;;8.18;3.80;;;;;;;7.19;100.00;101936.06;20993501;28;20041;-70
2022/02/08 19:43:48;;;;;;;6.82;3.15;;;;;;;7.16;100.00;101951.59;20983773;28;20510;-69
2022/02/08 19:53:52;;;;;;;12.18;5.03;;;;;;;7.18;100.00;101943.81;20984015;28;20467;-69
2022/02/08 20:04:04;;;;;;;12.05;5.57;;;;;;;7.15;100.00;101928.13;20985490;28;20521;-70
2022/02/08 20:14:07;;;;;;;11.48;6.45;;;;;;;7.12;100.00;101952.38;20992077;28;20117;-70
2022/02/08 20:24:15;;;;;;;10.18;4.78;;;;;;;7.12;100.00;101962.78;20990496;28;20045;-70
2022/02/08 20:34:23;;;;;;;8.75;4.88;;;;;;;7.19;100.00;101943.00;20975103;28;20773;-70
2022/02/08 20:44:26;;;;;;;7.63;3.70;;;;;;;7.22;100.00;101945.66;20978226;28;20049;-69
2022/02/08 20:54:38;;;;;;;5.85;2.95;;;;;;;7.20;100.00;101958.66;20976418;28;20045;-69
2022/02/08 21:04:52;;;;;;;8.40;4.53;;;;;;;7.16;100.00;101932.50;20975852;28;20118;-70
2022/02/08 21:14:54;;;;;;;4.45;2.00;;;;;;;7.15;100.00;101944.66;20975696;28;20067;-70
2022/02/08 21:24:56;;;;;;;5.82;2.10;;;;;;;7.16;100.00;101948.13;20975390;28;20041;-71
2022/02/08 21:55:25;;;;;;;5.30;2.20;;;;;;;7.21;100.00;101930.88;20973266;28;20186;-72
2022/02/08 22:05:28;;;;;;;4.00;1.63;;;;;;;7.21;100.00;101917.84;20970669;28;20493;-71
2022/02/08 22:15:51;;;;;;;4.10;1.90;;;;;;;7.25;100.00;101911.00;20958682;28;20052;-72
2022/02/08 22:26:53;;;;;;;4.72;1.73;;;;;;;7.23;100.00;101913.53;20967777;28;20425;-71
2022/02/08 22:36:32;;;;;;;3.60;1.90;;;;;;;7.24;100.00;101906.63;20965118;28;20082;-72
2022/02/08 22:46:34;;;;;;;3.83;1.80;;;;;;;7.22;100.00;101917.00;20968415;28;20060;-72
2022/02/08 22:56:35;;;;;;;4.45;1.77;;;;;;;7.29;100.00;101923.25;20968058;28;20045;-72
2022/02/08 23:06:37;;;;;;;3.30;1.40;;;;;;;7.29;100.00;101928.44;20968217;28;20062;-72
2022/02/08 23:16:49;;;;;;;3.75;1.25;;;;;;;7.28;100.00;101919.75;20970409;28;20040;-71
2022/02/08 23:37:11;;;;;;;3.40;1.48;;;;;;;7.31;100.00;101898.97;20969009;28;20051;-72
2022/02/08 23:47:18;;;;;;;7.38;2.60;;;;;;;7.31;100.00;101919.81;20970211;28;20094;-71
2022/02/08 23:57:25;;;;;;;5.70;2.00;;;;;;;7.31;100.00;101914.59;20968764;28;20044;-71
